Terminal Aerodrome Forecast
Issued by NWS Sioux Falls, SD

Current Version | Previous Version | Text Only | Print | Product List | Glossary On
Versions: 1 2 3 4 5 6 7 8 9 10 11 12 13 14 15 16 17 18 19 20 21 22 23 24 25 26 27 28
000
FTUS43 KFSD 230500 RRA
TAFSUX
TAF
KSUX 230543Z 2306/2406 06005KT P6SM SCT025 BKN200
     FM230800 09008KT P6SM SCT015 OVC070
      TEMPO 2309/2311 3SM TSRA BR BKN015 OVC060CB
     FM231100 10010KT 5SM BR BKN008
     FM231500 13012G17KT P6SM SCT015
     FM231800 16013G19KT P6SM FEW030
     FM240030 15009KT P6SM SCT150=

USA.gov is the U.S. government's official web portal to all federal, state and local government web resources and services.